sensor_id;sensor_type;location;lat;lon;timestamp;P1;durP1;ratioP1;P2;durP2;ratioP2
59042;SDS011;44826;51.596;5.624;2023-03-01T00:00:26;8.93;;;5.33;;
59042;SDS011;44826;51.596;5.624;2023-03-01T00:02:51;9.60;;;5.27;;
59042;SDS011;44826;51.596;5.624;2023-03-01T00:05:16;8.93;;;5.07;;
59042;SDS011;44826;51.596;5.624;2023-03-01T00:07:41;8.77;;;5.23;;
59042;SDS011;44826;51.596;5.624;2023-03-01T00:10:07;7.90;;;4.77;;
59042;SDS011;44826;51.596;5.624;2023-03-01T00:12:33;8.03;;;5.13;;
59042;SDS011;44826;51.596;5.624;2023-03-01T00:14:58;10.17;;;5.83;;
59042;SDS011;44826;51.596;5.624;2023-03-01T00:17:23;9.40;;;5.73;;
59042;SDS011;44826;51.596;5.624;2023-03-01T00:19:49;9.70;;;5.97;;
59042;SDS011;44826;51.596;5.624;2023-03-01T00:22:14;8.00;;;4.97;;
59042;SDS011;44826;51.596;5.624;2023-03-01T00:24:39;10.17;;;6.20;;
59042;SDS011;44826;51.596;5.624;2023-03-01T00:27:04;10.57;;;5.87;;
59042;SDS011;44826;51.596;5.624;2023-03-01T00:29:30;11.17;;;5.83;;
59042;SDS011;44826;51.596;5.624;2023-03-01T00:31:55;9.47;;;5.40;;
59042;SDS011;44826;51.596;5.624;2023-03-01T00:34:20;11.63;;;5.67;;
59042;SDS011;44826;51.596;5.624;2023-03-01T00:36:46;10.17;;;5.60;;
59042;SDS011;44826;51.596;5.624;2023-03-01T00:39:12;8.93;;;5.43;;
59042;SDS011;44826;51.596;5.624;2023-03-01T00:41:39;8.47;;;5.00;;
59042;SDS011;44826;51.596;5.624;2023-03-01T00:44:05;8.50;;;5.40;;
59042;SDS011;44826;51.596;5.624;2023-03-01T00:46:30;9.67;;;6.10;;
59042;SDS011;44826;51.596;5.624;2023-03-01T00:48:55;9.50;;;5.23;;
59042;SDS011;44826;51.596;5.624;2023-03-01T00:51:22;10.70;;;5.63;;
59042;SDS011;44826;51.596;5.624;2023-03-01T00:53:50;10.47;;;5.83;;
59042;SDS011;44826;51.596;5.624;2023-03-01T00:56:16;10.17;;;5.47;;
59042;SDS011;44826;51.596;5.624;2023-03-01T00:58:41;10.13;;;6.00;;
59042;SDS011;44826;51.596;5.624;2023-03-01T01:01:10;9.17;;;5.23;;
59042;SDS011;44826;51.596;5.624;2023-03-01T01:06:18;10.33;;;6.27;;
59042;SDS011;44826;51.596;5.624;2023-03-01T01:08:45;9.33;;;5.67;;
59042;SDS011;44826;51.596;5.624;2023-03-01T01:11:11;11.20;;;6.33;;
59042;SDS011;44826;51.596;5.624;2023-03-01T01:13:37;9.53;;;6.00;;
59042;SDS011;44826;51.596;5.624;2023-03-01T01:16:04;9.63;;;5.53;;
59042;SDS011;44826;51.596;5.624;2023-03-01T01:18:29;11.30;;;5.97;;
59042;SDS011;44826;51.596;5.624;2023-03-01T01:20:55;10.73;;;6.37;;
59042;SDS011;44826;51.596;5.624;2023-03-01T01:23:20;11.83;;;6.07;;
59042;SDS011;44826;51.596;5.624;2023-03-01T01:25:45;10.50;;;5.90;;
59042;SDS011;44826;51.596;5.624;2023-03-01T01:28:10;10.13;;;5.97;;
59042;SDS011;44826;51.596;5.624;2023-03-01T01:30:36;10.93;;;6.47;;
59042;SDS011;44826;51.596;5.624;2023-03-01T01:33:01;10.47;;;6.27;;
59042;SDS011;44826;51.596;5.624;2023-03-01T01:35:27;9.87;;;5.93;;
59042;SDS011;44826;51.596;5.624;2023-03-01T01:37:52;9.70;;;5.67;;
59042;SDS011;44826;51.596;5.624;2023-03-01T01:40:18;11.60;;;6.10;;
59042;SDS011;44826;51.596;5.624;2023-03-01T01:42:43;10.83;;;5.50;;
59042;SDS011;44826;51.596;5.624;2023-03-01T01:47:52;8.27;;;5.27;;
59042;SDS011;44826;51.596;5.624;2023-03-01T01:50:20;10.00;;;5.90;;
59042;SDS011;44826;51.596;5.624;2023-03-01T01:52:46;9.97;;;5.47;;
59042;SDS011;44826;51.596;5.624;2023-03-01T01:55:16;10.63;;;5.90;;
59042;SDS011;44826;51.596;5.624;2023-03-01T01:57:47;11.73;;;5.78;;
59042;SDS011;44826;51.596;5.624;2023-03-01T02:00:19;10.43;;;5.60;;
59042;SDS011;44826;51.596;5.624;2023-03-01T02:02:47;11.93;;;5.35;;
59042;SDS011;44826;51.596;5.624;2023-03-01T02:07:54;9.03;;;4.70;;
59042;SDS011;44826;51.596;5.624;2023-03-01T02:10:21;7.93;;;4.50;;
59042;SDS011;44826;51.596;5.624;2023-03-01T02:12:48;7.60;;;4.60;;
59042;SDS011;44826;51.596;5.624;2023-03-01T02:15:13;8.97;;;4.83;;
59042;SDS011;44826;51.596;5.624;2023-03-01T02:17:39;7.20;;;4.23;;
59042;SDS011;44826;51.596;5.624;2023-03-01T02:23:04;9.80;;;5.43;;
59042;SDS011;44826;51.596;5.624;2023-03-01T02:25:35;9.90;;;5.20;;
59042;SDS011;44826;51.596;5.624;2023-03-01T02:30:44;7.80;;;4.90;;
59042;SDS011;44826;51.596;5.624;2023-03-01T02:33:30;11.67;;;5.77;;
59042;SDS011;44826;51.596;5.624;2023-03-01T02:35:57;10.47;;;5.37;;
59042;SDS011;44826;51.596;5.624;2023-03-01T02:38:25;10.10;;;5.37;;
59042;SDS011;44826;51.596;5.624;2023-03-01T02:40:51;10.03;;;5.43;;
59042;SDS011;44826;51.596;5.624;2023-03-01T02:43:17;9.60;;;5.27;;
59042;SDS011;44826;51.596;5.624;2023-03-01T02:45:49;11.30;;;6.27;;
59042;SDS011;44826;51.596;5.624;2023-03-01T02:48:15;10.20;;;5.40;;
59042;SDS011;44826;51.596;5.624;2023-03-01T02:53:28;9.50;;;5.47;;
59042;SDS011;44826;51.596;5.624;2023-03-01T02:56:04;9.67;;;5.63;;
59042;SDS011;44826;51.596;5.624;2023-03-01T02:58:30;11.33;;;5.50;;
59042;SDS011;44826;51.596;5.624;2023-03-01T03:00:55;9.00;;;5.30;;
59042;SDS011;44826;51.596;5.624;2023-03-01T03:03:21;8.37;;;5.10;;
59042;SDS011;44826;51.596;5.624;2023-03-01T03:05:47;11.23;;;5.40;;
59042;SDS011;44826;51.596;5.624;2023-03-01T03:08:13;8.80;;;5.07;;
59042;SDS011;44826;51.596;5.624;2023-03-01T03:10:48;9.47;;;5.20;;
59042;SDS011;44826;51.596;5.624;2023-03-01T03:13:14;11.57;;;6.47;;
59042;SDS011;44826;51.596;5.624;2023-03-01T03:15:39;7.97;;;4.63;;
59042;SDS011;44826;51.596;5.624;2023-03-01T03:18:07;7.53;;;4.50;;
59042;SDS011;44826;51.596;5.624;2023-03-01T03:20:35;8.60;;;5.03;;
59042;SDS011;44826;51.596;5.624;2023-03-01T03:23:01;9.13;;;5.10;;
59042;SDS011;44826;51.596;5.624;2023-03-01T03:25:27;9.20;;;5.43;;
59042;SDS011;44826;51.596;5.624;2023-03-01T03:27:53;8.57;;;5.17;;
59042;SDS011;44826;51.596;5.624;2023-03-01T03:30:21;10.27;;;5.37;;
59042;SDS011;44826;51.596;5.624;2023-03-01T03:32:49;11.57;;;5.53;;
59042;SDS011;44826;51.596;5.624;2023-03-01T03:35:18;9.57;;;5.10;;
59042;SDS011;44826;51.596;5.624;2023-03-01T03:37:45;9.00;;;5.10;;
59042;SDS011;44826;51.596;5.624;2023-03-01T03:40:30;7.60;;;4.60;;
59042;SDS011;44826;51.596;5.624;2023-03-01T03:42:58;6.57;;;4.20;;
59042;SDS011;44826;51.596;5.624;2023-03-01T03:45:23;7.37;;;4.50;;
59042;SDS011;44826;51.596;5.624;2023-03-01T03:47:49;7.47;;;4.60;;
59042;SDS011;44826;51.596;5.624;2023-03-01T03:50:15;9.40;;;4.87;;
59042;SDS011;44826;51.596;5.624;2023-03-01T03:52:41;10.17;;;4.67;;
59042;SDS011;44826;51.596;5.624;2023-03-01T03:55:07;8.90;;;4.90;;
59042;SDS011;44826;51.596;5.624;2023-03-01T03:57:41;9.13;;;4.53;;
59042;SDS011;44826;51.596;5.624;2023-03-01T04:00:08;8.48;;;4.90;;
59042;SDS011;44826;51.596;5.624;2023-03-01T04:02:39;8.93;;;4.57;;
59042;SDS011;44826;51.596;5.624;2023-03-01T04:05:05;8.57;;;4.93;;
59042;SDS011;44826;51.596;5.624;2023-03-01T04:07:31;10.13;;;4.83;;
59042;SDS011;44826;51.596;5.624;2023-03-01T04:09:56;7.53;;;4.40;;
59042;SDS011;44826;51.596;5.624;2023-03-01T04:12:22;9.13;;;4.70;;
59042;SDS011;44826;51.596;5.624;2023-03-01T04:14:47;8.40;;;4.73;;
59042;SDS011;44826;51.596;5.624;2023-03-01T04:17:13;9.70;;;5.70;;
59042;SDS011;44826;51.596;5.624;2023-03-01T04:19:38;9.83;;;4.70;;
59042;SDS011;44826;51.596;5.624;2023-03-01T04:22:04;8.27;;;4.77;;
59042;SDS011;44826;51.596;5.624;2023-03-01T04:24:34;9.07;;;5.20;;
59042;SDS011;44826;51.596;5.624;2023-03-01T04:27:00;7.83;;;4.57;;
59042;SDS011;44826;51.596;5.624;2023-03-01T04:29:26;8.53;;;4.73;;
59042;SDS011;44826;51.596;5.624;2023-03-01T04:31:51;7.90;;;4.33;;
59042;SDS011;44826;51.596;5.624;2023-03-01T04:34:17;8.07;;;4.50;;
59042;SDS011;44826;51.596;5.624;2023-03-01T04:36:43;10.23;;;5.30;;
59042;SDS011;44826;51.596;5.624;2023-03-01T04:39:08;8.83;;;4.97;;
59042;SDS011;44826;51.596;5.624;2023-03-01T04:41:37;8.40;;;4.43;;
59042;SDS011;44826;51.596;5.624;2023-03-01T04:44:07;8.23;;;4.43;;
59042;SDS011;44826;51.596;5.624;2023-03-01T04:46:34;8.90;;;4.90;;
59042;SDS011;44826;51.596;5.624;2023-03-01T04:48:59;9.63;;;5.23;;
59042;SDS011;44826;51.596;5.624;2023-03-01T04:51:25;8.53;;;4.60;;
59042;SDS011;44826;51.596;5.624;2023-03-01T04:53:50;8.83;;;4.80;;
59042;SDS011;44826;51.596;5.624;2023-03-01T04:56:16;9.53;;;4.90;;
59042;SDS011;44826;51.596;5.624;2023-03-01T04:58:43;9.17;;;4.77;;
59042;SDS011;44826;51.596;5.624;2023-03-01T05:01:14;8.30;;;4.80;;
59042;SDS011;44826;51.596;5.624;2023-03-01T05:03:42;11.43;;;5.13;;
59042;SDS011;44826;51.596;5.624;2023-03-01T05:06:12;10.23;;;4.97;;
59042;SDS011;44826;51.596;5.624;2023-03-01T05:08:38;8.00;;;4.80;;
59042;SDS011;44826;51.596;5.624;2023-03-01T05:11:04;8.33;;;4.87;;
59042;SDS011;44826;51.596;5.624;2023-03-01T05:13:30;8.03;;;4.87;;
59042;SDS011;44826;51.596;5.624;2023-03-01T05:15:57;9.37;;;5.17;;
59042;SDS011;44826;51.596;5.624;2023-03-01T05:18:24;8.80;;;4.53;;
59042;SDS011;44826;51.596;5.624;2023-03-01T05:20:52;9.60;;;5.60;;
59042;SDS011;44826;51.596;5.624;2023-03-01T05:23:17;8.83;;;4.73;;
59042;SDS011;44826;51.596;5.624;2023-03-01T05:25:43;8.63;;;4.57;;
59042;SDS011;44826;51.596;5.624;2023-03-01T05:28:10;9.70;;;5.10;;
59042;SDS011;44826;51.596;5.624;2023-03-01T05:30:36;8.97;;;4.90;;
59042;SDS011;44826;51.596;5.624;2023-03-01T05:33:04;8.10;;;4.80;;
59042;SDS011;44826;51.596;5.624;2023-03-01T05:35:32;8.23;;;4.50;;
59042;SDS011;44826;51.596;5.624;2023-03-01T05:37:57;8.83;;;5.20;;
59042;SDS011;44826;51.596;5.624;2023-03-01T05:40:23;10.83;;;4.90;;
59042;SDS011;44826;51.596;5.624;2023-03-01T05:42:53;10.30;;;4.73;;
59042;SDS011;44826;51.596;5.624;2023-03-01T05:45:20;9.82;;;5.57;;
59042;SDS011;44826;51.596;5.624;2023-03-01T05:47:47;8.73;;;5.00;;
59042;SDS011;44826;51.596;5.624;2023-03-01T05:50:21;9.57;;;5.23;;
59042;SDS011;44826;51.596;5.624;2023-03-01T05:52:50;10.33;;;5.20;;
59042;SDS011;44826;51.596;5.624;2023-03-01T05:55:17;8.13;;;5.03;;
59042;SDS011;44826;51.596;5.624;2023-03-01T05:57:45;8.60;;;4.90;;
59042;SDS011;44826;51.596;5.624;2023-03-01T06:00:11;7.97;;;5.17;;
59042;SDS011;44826;51.596;5.624;2023-03-01T06:02:37;8.50;;;5.17;;
59042;SDS011;44826;51.596;5.624;2023-03-01T06:05:04;8.50;;;4.97;;
59042;SDS011;44826;51.596;5.624;2023-03-01T06:07:30;8.40;;;4.57;;
59042;SDS011;44826;51.596;5.624;2023-03-01T06:09:56;8.90;;;4.83;;
59042;SDS011;44826;51.596;5.624;2023-03-01T06:12:21;8.90;;;5.07;;
59042;SDS011;44826;51.596;5.624;2023-03-01T06:14:46;8.60;;;4.53;;
59042;SDS011;44826;51.596;5.624;2023-03-01T06:17:14;9.90;;;5.07;;
59042;SDS011;44826;51.596;5.624;2023-03-01T06:19:40;9.07;;;5.23;;
59042;SDS011;44826;51.596;5.624;2023-03-01T06:22:05;9.57;;;4.97;;
59042;SDS011;44826;51.596;5.624;2023-03-01T06:24:30;7.47;;;4.60;;
59042;SDS011;44826;51.596;5.624;2023-03-01T06:26:56;7.77;;;4.70;;
59042;SDS011;44826;51.596;5.624;2023-03-01T06:29:22;7.80;;;4.53;;
59042;SDS011;44826;51.596;5.624;2023-03-01T06:31:48;11.23;;;5.17;;
59042;SDS011;44826;51.596;5.624;2023-03-01T06:34:14;8.80;;;4.83;;
59042;SDS011;44826;51.596;5.624;2023-03-01T06:36:39;11.07;;;5.33;;
59042;SDS011;44826;51.596;5.624;2023-03-01T06:39:05;8.70;;;4.83;;
59042;SDS011;44826;51.596;5.624;2023-03-01T06:41:31;10.43;;;5.13;;
59042;SDS011;44826;51.596;5.624;2023-03-01T06:43:57;10.00;;;5.00;;
59042;SDS011;44826;51.596;5.624;2023-03-01T06:46:23;7.60;;;4.77;;
59042;SDS011;44826;51.596;5.624;2023-03-01T06:48:49;8.23;;;5.03;;
59042;SDS011;44826;51.596;5.624;2023-03-01T06:51:14;9.83;;;5.60;;
59042;SDS011;44826;51.596;5.624;2023-03-01T06:53:39;9.90;;;5.07;;
59042;SDS011;44826;51.596;5.624;2023-03-01T06:56:05;10.10;;;4.97;;
59042;SDS011;44826;51.596;5.624;2023-03-01T06:58:30;14.40;;;5.47;;
59042;SDS011;44826;51.596;5.624;2023-03-01T07:00:55;10.33;;;5.33;;
59042;SDS011;44826;51.596;5.624;2023-03-01T07:03:21;10.50;;;5.73;;
59042;SDS011;44826;51.596;5.624;2023-03-01T07:05:50;10.57;;;5.40;;
59042;SDS011;44826;51.596;5.624;2023-03-01T07:08:19;10.60;;;5.53;;
59042;SDS011;44826;51.596;5.624;2023-03-01T07:10:45;11.63;;;5.57;;
59042;SDS011;44826;51.596;5.624;2023-03-01T07:13:10;9.90;;;5.87;;
59042;SDS011;44826;51.596;5.624;2023-03-01T07:15:35;10.63;;;5.63;;
59042;SDS011;44826;51.596;5.624;2023-03-01T07:18:01;12.43;;;5.73;;
59042;SDS011;44826;51.596;5.624;2023-03-01T07:20:26;11.03;;;6.07;;
59042;SDS011;44826;51.596;5.624;2023-03-01T07:22:52;10.97;;;6.10;;
59042;SDS011;44826;51.596;5.624;2023-03-01T07:25:18;11.60;;;6.07;;
59042;SDS011;44826;51.596;5.624;2023-03-01T07:27:43;11.17;;;5.83;;
59042;SDS011;44826;51.596;5.624;2023-03-01T07:30:08;11.93;;;5.97;;
59042;SDS011;44826;51.596;5.624;2023-03-01T07:32:34;11.40;;;6.23;;
59042;SDS011;44826;51.596;5.624;2023-03-01T07:35:00;9.13;;;5.40;;
59042;SDS011;44826;51.596;5.624;2023-03-01T07:37:25;9.73;;;5.77;;
59042;SDS011;44826;51.596;5.624;2023-03-01T07:39:50;12.43;;;5.53;;
59042;SDS011;44826;51.596;5.624;2023-03-01T07:42:16;9.37;;;5.33;;
59042;SDS011;44826;51.596;5.624;2023-03-01T07:44:41;8.93;;;5.47;;
59042;SDS011;44826;51.596;5.624;2023-03-01T07:47:06;8.80;;;5.47;;
59042;SDS011;44826;51.596;5.624;2023-03-01T07:49:32;11.17;;;6.13;;
59042;SDS011;44826;51.596;5.624;2023-03-01T07:51:57;10.03;;;6.00;;
59042;SDS011;44826;51.596;5.624;2023-03-01T07:54:22;9.13;;;5.43;;
59042;SDS011;44826;51.596;5.624;2023-03-01T07:56:48;10.60;;;6.37;;
59042;SDS011;44826;51.596;5.624;2023-03-01T07:59:13;10.83;;;6.07;;
59042;SDS011;44826;51.596;5.624;2023-03-01T08:01:38;12.27;;;6.30;;
59042;SDS011;44826;51.596;5.624;2023-03-01T08:04:04;11.37;;;6.40;;
59042;SDS011;44826;51.596;5.624;2023-03-01T08:06:33;11.93;;;6.37;;
59042;SDS011;44826;51.596;5.624;2023-03-01T08:08:59;11.10;;;6.17;;
59042;SDS011;44826;51.596;5.624;2023-03-01T08:11:24;10.83;;;6.20;;
59042;SDS011;44826;51.596;5.624;2023-03-01T08:13:49;11.23;;;5.47;;
59042;SDS011;44826;51.596;5.624;2023-03-01T08:16:15;9.20;;;5.87;;
59042;SDS011;44826;51.596;5.624;2023-03-01T08:18:40;8.87;;;5.63;;
59042;SDS011;44826;51.596;5.624;2023-03-01T08:21:09;9.23;;;5.50;;
59042;SDS011;44826;51.596;5.624;2023-03-01T08:23:36;10.30;;;5.13;;
59042;SDS011;44826;51.596;5.624;2023-03-01T08:26:06;10.37;;;5.47;;
59042;SDS011;44826;51.596;5.624;2023-03-01T08:28:34;8.37;;;5.20;;
59042;SDS011;44826;51.596;5.624;2023-03-01T08:30:59;10.77;;;5.33;;
59042;SDS011;44826;51.596;5.624;2023-03-01T08:33:25;9.73;;;5.07;;
59042;SDS011;44826;51.596;5.624;2023-03-01T08:35:50;8.50;;;5.17;;
59042;SDS011;44826;51.596;5.624;2023-03-01T08:38:15;10.37;;;5.40;;
59042;SDS011;44826;51.596;5.624;2023-03-01T08:40:40;9.60;;;5.10;;
59042;SDS011;44826;51.596;5.624;2023-03-01T08:43:06;7.93;;;5.00;;
59042;SDS011;44826;51.596;5.624;2023-03-01T08:45:31;10.20;;;5.20;;
59042;SDS011;44826;51.596;5.624;2023-03-01T08:47:56;9.77;;;5.27;;
59042;SDS011;44826;51.596;5.624;2023-03-01T08:50:21;8.37;;;5.20;;
59042;SDS011;44826;51.596;5.624;2023-03-01T08:52:49;8.60;;;5.00;;
59042;SDS011;44826;51.596;5.624;2023-03-01T08:55:14;8.30;;;4.90;;
59042;SDS011;44826;51.596;5.624;2023-03-01T08:57:42;8.10;;;4.53;;
59042;SDS011;44826;51.596;5.624;2023-03-01T09:00:07;7.77;;;4.63;;
59042;SDS011;44826;51.596;5.624;2023-03-01T09:02:33;7.43;;;4.40;;
59042;SDS011;44826;51.596;5.624;2023-03-01T09:04:58;7.07;;;4.27;;
59042;SDS011;44826;51.596;5.624;2023-03-01T09:07:24;9.13;;;4.63;;
59042;SDS011;44826;51.596;5.624;2023-03-01T09:09:53;7.93;;;4.67;;
59042;SDS011;44826;51.596;5.624;2023-03-01T09:12:19;8.53;;;4.83;;
59042;SDS011;44826;51.596;5.624;2023-03-01T09:14:44;8.57;;;4.97;;
59042;SDS011;44826;51.596;5.624;2023-03-01T09:17:10;7.40;;;4.23;;
59042;SDS011;44826;51.596;5.624;2023-03-01T09:19:35;8.63;;;5.20;;
59042;SDS011;44826;51.596;5.624;2023-03-01T09:22:00;9.50;;;5.47;;
59042;SDS011;44826;51.596;5.624;2023-03-01T09:24:25;9.90;;;5.83;;
59042;SDS011;44826;51.596;5.624;2023-03-01T09:26:52;7.43;;;4.70;;
59042;SDS011;44826;51.596;5.624;2023-03-01T09:29:20;9.33;;;4.93;;
59042;SDS011;44826;51.596;5.624;2023-03-01T09:31:45;8.40;;;4.90;;
59042;SDS011;44826;51.596;5.624;2023-03-01T09:34:11;8.63;;;5.07;;
59042;SDS011;44826;51.596;5.624;2023-03-01T09:36:36;10.07;;;5.23;;
59042;SDS011;44826;51.596;5.624;2023-03-01T09:39:02;9.17;;;5.00;;
59042;SDS011;44826;51.596;5.624;2023-03-01T09:41:58;8.93;;;5.20;;
59042;SDS011;44826;51.596;5.624;2023-03-01T09:47:02;10.17;;;5.20;;
59042;SDS011;44826;51.596;5.624;2023-03-01T09:49:29;8.13;;;4.63;;
59042;SDS011;44826;51.596;5.624;2023-03-01T09:54:28;9.87;;;5.30;;
59042;SDS011;44826;51.596;5.624;2023-03-01T09:59:42;7.10;;;4.67;;
59042;SDS011;44826;51.596;5.624;2023-03-01T10:02:23;7.60;;;4.43;;
59042;SDS011;44826;51.596;5.624;2023-03-01T10:04:54;9.90;;;5.03;;
59042;SDS011;44826;51.596;5.624;2023-03-01T10:10:07;8.90;;;4.70;;
59042;SDS011;44826;51.596;5.624;2023-03-01T10:12:34;7.63;;;4.60;;
59042;SDS011;44826;51.596;5.624;2023-03-01T10:17:41;8.27;;;4.77;;
59042;SDS011;44826;51.596;5.624;2023-03-01T10:20:19;8.37;;;5.20;;
59042;SDS011;44826;51.596;5.624;2023-03-01T10:22:47;7.67;;;4.10;;
59042;SDS011;44826;51.596;5.624;2023-03-01T10:28:10;8.77;;;4.70;;
59042;SDS011;44826;51.596;5.624;2023-03-01T10:30:42;9.50;;;5.30;;
59042;SDS011;44826;51.596;5.624;2023-03-01T10:33:19;8.83;;;5.20;;
59042;SDS011;44826;51.596;5.624;2023-03-01T10:35:48;7.50;;;4.60;;
59042;SDS011;44826;51.596;5.624;2023-03-01T10:38:14;10.33;;;5.50;;
59042;SDS011;44826;51.596;5.624;2023-03-01T10:40:51;10.63;;;5.37;;
59042;SDS011;44826;51.596;5.624;2023-03-01T10:43:19;7.70;;;4.30;;
59042;SDS011;44826;51.596;5.624;2023-03-01T10:45:46;8.43;;;5.40;;
59042;SDS011;44826;51.596;5.624;2023-03-01T10:48:15;10.60;;;5.37;;
59042;SDS011;44826;51.596;5.624;2023-03-01T10:51:05;9.57;;;5.35;;
59042;SDS011;44826;51.596;5.624;2023-03-01T10:56:12;9.27;;;5.63;;
59042;SDS011;44826;51.596;5.624;2023-03-01T10:58:58;12.07;;;5.67;;
59042;SDS011;44826;51.596;5.624;2023-03-01T11:01:27;10.07;;;5.27;;
59042;SDS011;44826;51.596;5.624;2023-03-01T11:06:32;9.17;;;5.00;;
59042;SDS011;44826;51.596;5.624;2023-03-01T11:09:12;8.57;;;5.07;;
59042;SDS011;44826;51.596;5.624;2023-03-01T11:11:45;8.13;;;4.87;;
59042;SDS011;44826;51.596;5.624;2023-03-01T11:14:18;9.47;;;5.57;;
59042;SDS011;44826;51.596;5.624;2023-03-01T11:22:54;9.30;;;4.97;;
59042;SDS011;44826;51.596;5.624;2023-03-01T11:25:24;9.77;;;5.50;;
59042;SDS011;44826;51.596;5.624;2023-03-01T11:27:53;11.37;;;5.13;;
59042;SDS011;44826;51.596;5.624;2023-03-01T11:30:29;9.37;;;5.70;;
59042;SDS011;44826;51.596;5.624;2023-03-01T11:42:02;8.32;;;5.00;;
59042;SDS011;44826;51.596;5.624;2023-03-01T11:44:35;8.47;;;4.93;;
59042;SDS011;44826;51.596;5.624;2023-03-01T11:47:15;7.30;;;4.33;;
59042;SDS011;44826;51.596;5.624;2023-03-01T12:00:39;9.07;;;4.93;;
59042;SDS011;44826;51.596;5.624;2023-03-01T12:08:35;8.30;;;4.68;;
59042;SDS011;44826;51.596;5.624;2023-03-01T12:22:35;7.20;;;4.70;;
59042;SDS011;44826;51.596;5.624;2023-03-01T12:28:07;9.00;;;4.70;;
59042;SDS011;44826;51.596;5.624;2023-03-01T12:30:47;7.53;;;4.80;;
59042;SDS011;44826;51.596;5.624;2023-03-01T12:38:59;7.57;;;4.90;;
59042;SDS011;44826;51.596;5.624;2023-03-01T12:41:36;7.95;;;5.03;;
59042;SDS011;44826;51.596;5.624;2023-03-01T12:46:52;9.07;;;5.10;;
59042;SDS011;44826;51.596;5.624;2023-03-01T12:49:31;7.17;;;4.93;;
59042;SDS011;44826;51.596;5.624;2023-03-01T12:51:59;7.13;;;4.45;;
59042;SDS011;44826;51.596;5.624;2023-03-01T12:54:29;7.63;;;4.97;;
59042;SDS011;44826;51.596;5.624;2023-03-01T12:56:57;8.63;;;4.68;;
59042;SDS011;44826;51.596;5.624;2023-03-01T13:10:43;7.32;;;4.50;;
59042;SDS011;44826;51.596;5.624;2023-03-01T13:15:51;8.10;;;4.57;;
59042;SDS011;44826;51.596;5.624;2023-03-01T13:20:51;6.45;;;4.53;;
59042;SDS011;44826;51.596;5.624;2023-03-01T13:33:52;8.65;;;5.15;;
59042;SDS011;44826;51.596;5.624;2023-03-01T13:49:42;7.78;;;4.82;;
59042;SDS011;44826;51.596;5.624;2023-03-01T13:55:07;6.57;;;4.45;;
59042;SDS011;44826;51.596;5.624;2023-03-01T13:57:43;7.60;;;4.90;;
59042;SDS011;44826;51.596;5.624;2023-03-01T14:03:00;8.43;;;5.13;;
59042;SDS011;44826;51.596;5.624;2023-03-01T14:05:30;7.50;;;4.97;;
59042;SDS011;44826;51.596;5.624;2023-03-01T14:07:56;7.07;;;5.00;;
59042;SDS011;44826;51.596;5.624;2023-03-01T14:10:21;8.30;;;5.05;;
59042;SDS011;44826;51.596;5.624;2023-03-01T14:15:35;6.50;;;4.53;;
59042;SDS011;44826;51.596;5.624;2023-03-01T14:18:19;8.05;;;4.93;;
59042;SDS011;44826;51.596;5.624;2023-03-01T14:20:49;8.00;;;4.93;;
59042;SDS011;44826;51.596;5.624;2023-03-01T14:23:23;8.43;;;5.20;;
59042;SDS011;44826;51.596;5.624;2023-03-01T14:25:55;9.27;;;5.43;;
59042;SDS011;44826;51.596;5.624;2023-03-01T14:28:26;9.70;;;5.57;;
59042;SDS011;44826;51.596;5.624;2023-03-01T14:30:54;8.63;;;5.90;;
59042;SDS011;44826;51.596;5.624;2023-03-01T14:35:58;10.02;;;5.78;;
59042;SDS011;44826;51.596;5.624;2023-03-01T14:41:00;9.23;;;5.55;;
59042;SDS011;44826;51.596;5.624;2023-03-01T14:43:29;10.80;;;5.47;;
59042;SDS011;44826;51.596;5.624;2023-03-01T14:45:56;8.63;;;5.55;;
59042;SDS011;44826;51.596;5.624;2023-03-01T14:48:21;9.55;;;5.63;;
59042;SDS011;44826;51.596;5.624;2023-03-01T14:50:47;9.70;;;6.03;;
59042;SDS011;44826;51.596;5.624;2023-03-01T14:53:21;7.70;;;5.43;;
59042;SDS011;44826;51.596;5.624;2023-03-01T14:55:51;8.48;;;5.32;;
59042;SDS011;44826;51.596;5.624;2023-03-01T14:58:20;9.30;;;5.38;;
59042;SDS011;44826;51.596;5.624;2023-03-01T15:00:49;9.43;;;5.88;;
59042;SDS011;44826;51.596;5.624;2023-03-01T15:03:20;8.48;;;5.43;;
59042;SDS011;44826;51.596;5.624;2023-03-01T15:05:48;9.50;;;5.65;;
59042;SDS011;44826;51.596;5.624;2023-03-01T15:08:16;7.78;;;5.38;;
59042;SDS011;44826;51.596;5.624;2023-03-01T15:10:55;9.80;;;6.03;;
59042;SDS011;44826;51.596;5.624;2023-03-01T15:13:25;10.23;;;6.05;;
59042;SDS011;44826;51.596;5.624;2023-03-01T15:15:53;8.93;;;5.40;;
59042;SDS011;44826;51.596;5.624;2023-03-01T15:18:28;7.78;;;5.53;;
59042;SDS011;44826;51.596;5.624;2023-03-01T15:20:54;9.73;;;5.45;;
59042;SDS011;44826;51.596;5.624;2023-03-01T15:23:22;9.43;;;5.55;;
59042;SDS011;44826;51.596;5.624;2023-03-01T15:25:48;8.27;;;5.57;;
59042;SDS011;44826;51.596;5.624;2023-03-01T15:28:21;10.30;;;5.93;;
59042;SDS011;44826;51.596;5.624;2023-03-01T15:30:53;9.40;;;5.78;;
59042;SDS011;44826;51.596;5.624;2023-03-01T15:33:27;8.52;;;5.85;;
59042;SDS011;44826;51.596;5.624;2023-03-01T15:36:02;9.10;;;5.88;;
59042;SDS011;44826;51.596;5.624;2023-03-01T15:38:52;9.13;;;5.88;;
59042;SDS011;44826;51.596;5.624;2023-03-01T15:41:26;9.73;;;5.93;;
59042;SDS011;44826;51.596;5.624;2023-03-01T15:43:56;8.75;;;5.68;;
59042;SDS011;44826;51.596;5.624;2023-03-01T15:46:24;8.98;;;5.95;;
59042;SDS011;44826;51.596;5.624;2023-03-01T15:48:55;8.65;;;5.60;;
59042;SDS011;44826;51.596;5.624;2023-03-01T15:51:27;9.75;;;5.82;;
59042;SDS011;44826;51.596;5.624;2023-03-01T15:53:54;8.52;;;5.78;;
59042;SDS011;44826;51.596;5.624;2023-03-01T15:56:21;10.07;;;5.82;;
59042;SDS011;44826;51.596;5.624;2023-03-01T15:58:46;7.47;;;5.18;;
59042;SDS011;44826;51.596;5.624;2023-03-01T16:01:12;10.88;;;6.20;;
59042;SDS011;44826;51.596;5.624;2023-03-01T16:03:39;9.27;;;5.72;;
59042;SDS011;44826;51.596;5.624;2023-03-01T16:06:04;9.18;;;5.70;;
59042;SDS011;44826;51.596;5.624;2023-03-01T16:08:29;9.10;;;5.72;;
59042;SDS011;44826;51.596;5.624;2023-03-01T16:10:55;8.30;;;5.28;;
59042;SDS011;44826;51.596;5.624;2023-03-01T16:13:20;8.65;;;5.28;;
59042;SDS011;44826;51.596;5.624;2023-03-01T16:15:46;8.40;;;5.32;;
59042;SDS011;44826;51.596;5.624;2023-03-01T16:18:11;8.48;;;4.95;;
59042;SDS011;44826;51.596;5.624;2023-03-01T16:20:37;11.48;;;5.90;;
59042;SDS011;44826;51.596;5.624;2023-03-01T16:23:04;8.65;;;5.35;;
59042;SDS011;44826;51.596;5.624;2023-03-01T16:25:31;8.93;;;5.55;;
59042;SDS011;44826;51.596;5.624;2023-03-01T16:27:57;9.15;;;5.53;;
59042;SDS011;44826;51.596;5.624;2023-03-01T16:30:26;10.65;;;5.38;;
59042;SDS011;44826;51.596;5.624;2023-03-01T16:32:52;9.45;;;5.68;;
59042;SDS011;44826;51.596;5.624;2023-03-01T16:35:18;8.75;;;5.45;;
59042;SDS011;44826;51.596;5.624;2023-03-01T16:37:45;10.85;;;5.90;;
59042;SDS011;44826;51.596;5.624;2023-03-01T16:40:16;8.90;;;5.57;;
59042;SDS011;44826;51.596;5.624;2023-03-01T16:42:46;10.38;;;5.32;;
59042;SDS011;44826;51.596;5.624;2023-03-01T16:45:12;8.85;;;5.30;;
59042;SDS011;44826;51.596;5.624;2023-03-01T16:47:38;11.10;;;5.38;;
59042;SDS011;44826;51.596;5.624;2023-03-01T16:50:03;8.07;;;4.72;;
59042;SDS011;44826;51.596;5.624;2023-03-01T16:52:29;9.45;;;5.55;;
59042;SDS011;44826;51.596;5.624;2023-03-01T16:54:54;8.45;;;5.15;;
59042;SDS011;44826;51.596;5.624;2023-03-01T16:57:19;7.38;;;4.78;;
59042;SDS011;44826;51.596;5.624;2023-03-01T16:59:45;9.25;;;5.38;;
59042;SDS011;44826;51.596;5.624;2023-03-01T17:02:11;8.45;;;5.47;;
59042;SDS011;44826;51.596;5.624;2023-03-01T17:04:43;8.00;;;4.95;;
59042;SDS011;44826;51.596;5.624;2023-03-01T17:07:09;7.68;;;5.18;;
59042;SDS011;44826;51.596;5.624;2023-03-01T17:09:35;12.48;;;5.03;;
59042;SDS011;44826;51.596;5.624;2023-03-01T17:12:01;8.77;;;5.15;;